Time;durP1;ratioP1;P1;durP2;ratioP2;P2;SDS_P1;SDS_P2;PMS_P1;PMS_P2;Temp;Humidity;BMP_temperature;BMP_pressure;BME280_temperature;BME280_humidity;BME280_pressure;Samples;Min_cycle;Max_cycle;Signal;HPM_P1;HPM_P2
2021/09/21 00:01:05;;;;;;;9.35;4.70;;;13.40;80.60;;;;;;5036513;28;20076;-72
2021/09/21 00:03:32;;;;;;;11.75;4.15;;;13.50;81.60;;;;;;5032904;28;20025;-72
2021/09/21 00:05:59;;;;;;;9.35;4.10;;;13.50;81.40;;;;;;5036358;28;20025;-72
2021/09/21 00:08:27;;;;;;;11.30;4.28;;;13.50;82.40;;;;;;5031699;28;20027;-72
2021/09/21 00:10:57;;;;;;;10.52;3.85;;;13.50;81.90;;;;;;5036606;28;20483;-71
2021/09/21 00:13:23;;;;;;;11.95;4.60;;;13.50;81.70;;;;;;5039391;28;20020;-72
2021/09/21 00:15:50;;;;;;;12.48;4.35;;;13.50;82.00;;;;;;5026838;28;20022;-72
2021/09/21 00:18:16;;;;;;;8.27;4.13;;;13.50;82.00;;;;;;5034845;28;20511;-72
2021/09/21 00:20:42;;;;;;;10.88;5.05;;;13.50;80.90;;;;;;5039283;28;20025;-72
2021/09/21 00:23:08;;;;;;;11.38;4.68;;;13.50;81.80;;;;;;5037932;28;20017;-72
2021/09/21 00:25:34;;;;;;;10.18;4.40;;;13.40;81.90;;;;;;5046805;28;20025;-72
2021/09/21 00:27:59;;;;;;;9.07;4.85;;;13.40;81.40;;;;;;5039937;28;20097;-72
2021/09/21 00:30:25;;;;;;;8.55;4.68;;;13.40;81.00;;;;;;5038706;28;20076;-72
2021/09/21 00:33:02;;;;;;;12.07;4.72;;;13.40;81.50;;;;;;5040055;28;20076;-72
2021/09/21 00:35:29;;;;;;;11.45;5.30;;;13.30;82.50;;;;;;5033686;28;20049;-72
2021/09/21 00:37:55;;;;;;;12.98;4.70;;;13.40;83.30;;;;;;5039995;28;20049;-72
2021/09/21 00:40:20;;;;;;;11.70;5.18;;;13.30;82.80;;;;;;5040216;28;20029;-72
2021/09/21 00:42:46;;;;;;;7.97;4.93;;;13.30;83.20;;;;;;5032367;28;20076;-72
2021/09/21 00:45:32;;;;;;;7.25;4.28;;;13.30;82.40;;;;;;5039634;28;20013;-72
2021/09/21 00:47:58;;;;;;;13.48;5.10;;;13.30;81.60;;;;;;5039686;28;20032;-72
2021/09/21 00:50:27;;;;;;;11.77;5.07;;;13.30;82.90;;;;;;5039463;28;20089;-72
2021/09/21 00:52:59;;;;;;;6.93;4.30;;;13.20;81.10;;;;;;5039406;28;20075;-72
2021/09/21 00:55:27;;;;;;;9.70;4.40;;;13.20;81.00;;;;;;5039762;28;20029;-72
2021/09/21 00:57:56;;;;;;;11.07;4.50;;;13.20;81.90;;;;;;5039568;28;20083;-72
2021/09/21 01:00:23;;;;;;;10.40;4.57;;;13.20;82.40;;;;;;5037161;28;20067;-72
2021/09/21 01:02:49;;;;;;;10.00;4.75;;;13.20;82.20;;;;;;5036834;28;20048;-72
2021/09/21 01:05:15;;;;;;;9.80;4.90;;;13.20;82.40;;;;;;5038023;28;20436;-72
2021/09/21 01:07:43;;;;;;;13.00;5.70;;;13.10;82.30;;;;;;5036202;28;20049;-72
2021/09/21 01:10:18;;;;;;;9.27;4.85;;;13.10;82.40;;;;;;5053301;28;20108;-72
2021/09/21 01:12:44;;;;;;;8.52;4.40;;;13.10;83.40;;;;;;5041891;28;20063;-72
2021/09/21 01:15:11;;;;;;;12.30;4.43;;;13.10;81.80;;;;;;5039128;28;20017;-72
2021/09/21 01:17:37;;;;;;;9.27;4.63;;;13.00;81.70;;;;;;5039052;28;20021;-72
2021/09/21 01:20:05;;;;;;;8.65;5.00;;;13.00;81.80;;;;;;5037912;28;20093;-72
2021/09/21 01:22:30;;;;;;;12.50;5.00;;;13.00;82.70;;;;;;5036918;28;20383;-72
2021/09/21 01:24:56;;;;;;;12.20;5.32;;;13.00;83.00;;;;;;5045043;28;20111;-72
2021/09/21 01:27:22;;;;;;;9.73;4.15;;;13.00;83.70;;;;;;5034105;28;20029;-72
2021/09/21 01:29:48;;;;;;;9.88;4.13;;;13.00;82.40;;;;;;5038788;28;20055;-72
2021/09/21 01:32:14;;;;;;;9.65;4.70;;;12.90;82.10;;;;;;5038203;28;20096;-72
2021/09/21 01:34:40;;;;;;;8.65;4.45;;;12.90;81.50;;;;;;5038787;28;20045;-72
2021/09/21 01:37:06;;;;;;;8.90;4.40;;;12.90;81.80;;;;;;5038910;28;20048;-72
2021/09/21 01:39:32;;;;;;;7.55;4.10;;;12.90;81.90;;;;;;5039081;28;20033;-72
2021/09/21 01:42:00;;;;;;;9.48;4.35;;;12.90;80.60;;;;;;5037692;28;20396;-72
2021/09/21 01:44:26;;;;;;;9.65;4.93;;;12.80;80.80;;;;;;5036555;28;20104;-72
2021/09/21 01:46:52;;;;;;;8.77;4.53;;;12.80;81.20;;;;;;5038465;28;20068;-72
2021/09/21 01:49:19;;;;;;;12.15;4.90;;;12.80;81.80;;;;;;5037015;28;20025;-72
2021/09/21 01:51:59;;;;;;;9.50;5.82;;;12.80;82.70;;;;;;5038607;28;20029;-72
2021/09/21 01:54:43;;;;;;;14.90;5.63;;;12.80;83.50;;;;;;5038400;28;20033;-72
2021/09/21 01:59:53;;;;;;;11.02;4.93;;;12.80;84.40;;;;;;5036256;28;20087;-72
2021/09/21 02:02:19;;;;;;;12.38;5.03;;;12.80;83.80;;;;;;5037566;28;20021;-72
2021/09/21 02:04:44;;;;;;;11.18;6.13;;;12.80;84.80;;;;;;5036290;28;20064;-72
2021/09/21 02:07:10;;;;;;;10.00;6.07;;;12.80;84.60;;;;;;5038268;28;20394;-72
2021/09/21 02:09:36;;;;;;;10.50;5.00;;;12.70;84.20;;;;;;5033849;28;20080;-72
2021/09/21 02:12:02;;;;;;;9.38;5.50;;;12.70;83.60;;;;;;5039608;28;20120;-72
2021/09/21 02:14:28;;;;;;;13.50;5.35;;;12.70;84.10;;;;;;5037996;28;20052;-72
2021/09/21 02:16:56;;;;;;;16.60;6.30;;;12.70;84.50;;;;;;5037999;28;20141;-72
2021/09/21 02:19:23;;;;;;;12.95;5.75;;;12.70;84.70;;;;;;5038132;28;20453;-72
2021/09/21 02:21:50;;;;;;;13.32;5.55;;;12.70;85.30;;;;;;5038219;28;20016;-72
2021/09/21 02:24:19;;;;;;;12.43;5.50;;;12.70;84.80;;;;;;5039254;28;20025;-72
2021/09/21 02:26:45;;;;;;;9.52;6.03;;;12.70;84.10;;;;;;5035480;28;20025;-72
2021/09/21 02:29:11;;;;;;;9.65;5.50;;;12.70;84.40;;;;;;5037266;28;20076;-72
2021/09/21 02:31:37;;;;;;;10.48;5.63;;;12.70;84.00;;;;;;5037792;28;20021;-72
2021/09/21 02:34:03;;;;;;;10.10;5.50;;;12.60;84.20;;;;;;5037746;28;20037;-72
2021/09/21 02:36:29;;;;;;;9.63;5.65;;;12.60;83.90;;;;;;5037390;28;20044;-72
2021/09/21 02:38:55;;;;;;;12.18;5.75;;;12.60;83.50;;;;;;5038081;28;20029;-72
2021/09/21 02:41:21;;;;;;;10.50;5.60;;;12.60;84.80;;;;;;5037747;28;20420;-72
2021/09/21 02:43:47;;;;;;;13.02;6.20;;;12.60;84.90;;;;;;5029394;28;20076;-72
2021/09/21 02:46:14;;;;;;;11.35;5.80;;;12.60;85.00;;;;;;5037093;28;20507;-72
2021/09/21 02:48:41;;;;;;;10.38;5.47;;;12.60;85.10;;;;;;5037498;28;20029;-72
2021/09/21 02:51:07;;;;;;;9.50;4.90;;;12.50;84.80;;;;;;5037526;28;20151;-72
2021/09/21 02:53:33;;;;;;;10.52;5.43;;;12.50;83.60;;;;;;5037382;28;20017;-72
2021/09/21 02:55:59;;;;;;;9.80;5.47;;;12.50;82.80;;;;;;5037522;28;20017;-72
2021/09/21 02:58:25;;;;;;;8.25;4.45;;;12.50;83.00;;;;;;5037386;28;20032;-72
2021/09/21 03:00:54;;;;;;;9.88;5.30;;;12.50;82.90;;;;;;5037439;28;20048;-72
2021/09/21 03:03:22;;;;;;;10.43;5.05;;;12.40;82.80;;;;;;5034970;28;20025;-72
2021/09/21 03:05:57;;;;;;;10.15;4.88;;;12.50;83.80;;;;;;5037282;28;20028;-72
2021/09/21 03:08:24;;;;;;;15.57;5.72;;;12.40;83.10;;;;;;5036781;28;20060;-72
2021/09/21 03:18:57;;;;;;;11.40;4.80;;;12.40;82.80;;;;;;5037420;28;20067;-72
2021/09/21 03:21:23;;;;;;;9.88;5.10;;;12.40;82.60;;;;;;5037234;28;20104;-72
2021/09/21 03:23:49;;;;;;;11.93;5.95;;;12.40;82.90;;;;;;5040097;28;20029;-72
2021/09/21 03:26:16;;;;;;;12.55;6.28;;;12.40;83.70;;;;;;5030335;28;20056;-72
2021/09/21 03:28:42;;;;;;;11.60;5.43;;;12.40;84.50;;;;;;5036726;28;20037;-72
2021/09/21 03:31:08;;;;;;;15.40;6.25;;;12.40;84.70;;;;;;5036792;28;20444;-72
2021/09/21 03:33:34;;;;;;;9.40;5.85;;;12.40;83.70;;;;;;5036681;28;20026;-72
2021/09/21 03:36:00;;;;;;;11.77;5.60;;;12.40;84.40;;;;;;5036722;28;20053;-72
2021/09/21 03:38:26;;;;;;;9.93;5.25;;;12.40;84.50;;;;;;5037017;28;20042;-72
2021/09/21 03:40:52;;;;;;;15.00;5.88;;;12.40;83.70;;;;;;5037135;28;20025;-72
2021/09/21 03:43:18;;;;;;;11.52;6.18;;;12.40;85.30;;;;;;5029500;28;20029;-72
2021/09/21 03:45:43;;;;;;;10.70;5.07;;;12.40;85.30;;;;;;5037144;28;20029;-72
2021/09/21 03:48:09;;;;;;;13.32;5.32;;;12.40;84.00;;;;;;5036541;28;20061;-72
2021/09/21 03:50:35;;;;;;;14.20;6.05;;;12.40;84.50;;;;;;5036737;28;20512;-72
2021/09/21 03:53:03;;;;;;;11.25;6.07;;;12.40;84.50;;;;;;5036836;28;20403;-72
2021/09/21 03:55:29;;;;;;;11.60;5.18;;;12.40;85.80;;;;;;5040633;28;20021;-72
2021/09/21 03:57:55;;;;;;;9.50;5.60;;;12.40;85.40;;;;;;5040621;28;20053;-72
2021/09/21 04:00:22;;;;;;;8.90;5.32;;;12.40;86.30;;;;;;5040890;28;20075;-72
2021/09/21 04:02:48;;;;;;;12.13;5.80;;;12.40;84.80;;;;;;5038238;28;20013;-72
2021/09/21 04:05:13;;;;;;;15.80;6.38;;;12.40;86.40;;;;;;5040275;28;20032;-72
2021/09/21 04:07:40;;;;;;;13.65;6.30;;;12.40;87.30;;;;;;5040604;28;20109;-72
2021/09/21 04:10:07;;;;;;;14.02;6.43;;;12.50;87.20;;;;;;5040378;28;20484;-72
2021/09/21 04:12:35;;;;;;;13.02;6.43;;;12.50;87.40;;;;;;5033749;28;20541;-72
2021/09/21 04:15:02;;;;;;;9.60;5.72;;;12.50;87.40;;;;;;5040233;28;20392;-72
2021/09/21 04:17:28;;;;;;;12.15;6.40;;;12.40;86.80;;;;;;5040356;28;20100;-72
2021/09/21 04:19:54;;;;;;;11.95;5.85;;;12.40;86.40;;;;;;5040405;28;20144;-72
2021/09/21 04:22:20;;;;;;;12.10;6.07;;;12.40;85.70;;;;;;5039601;28;20369;-72
2021/09/21 04:24:46;;;;;;;11.05;6.05;;;12.40;86.60;;;;;;5046900;28;20025;-72
2021/09/21 04:27:12;;;;;;;9.73;5.82;;;12.40;87.30;;;;;;5033411;28;20405;-72
2021/09/21 04:29:38;;;;;;;10.02;5.65;;;12.40;86.30;;;;;;5039802;28;20032;-72
2021/09/21 04:32:04;;;;;;;14.95;6.40;;;12.40;85.80;;;;;;5040036;28;20033;-72
2021/09/21 04:34:30;;;;;;;9.55;6.00;;;12.40;86.80;;;;;;5039871;28;20072;-72
2021/09/21 04:36:59;;;;;;;11.80;6.32;;;12.40;87.00;;;;;;5039731;28;20045;-72
2021/09/21 04:39:26;;;;;;;14.15;6.47;;;12.40;86.60;;;;;;5040036;28;20029;-72
2021/09/21 04:41:52;;;;;;;13.02;6.05;;;12.40;86.60;;;;;;5028520;28;20018;-72
2021/09/21 04:44:18;;;;;;;11.98;6.28;;;12.30;86.70;;;;;;5034844;28;20067;-72
2021/09/21 04:46:46;;;;;;;14.77;6.50;;;12.40;87.40;;;;;;5039688;28;20049;-72
2021/09/21 04:49:13;;;;;;;12.90;4.93;;;12.40;87.50;;;;;;5039851;28;20018;-72
2021/09/21 04:51:40;;;;;;;8.95;4.72;;;12.30;85.50;;;;;;5040004;28;20052;-72
2021/09/21 04:54:06;;;;;;;9.13;4.40;;;12.30;84.60;;;;;;5039346;28;20041;-72
2021/09/21 04:56:32;;;;;;;10.60;4.95;;;12.30;83.70;;;;;;5039653;28;20400;-72
2021/09/21 04:58:58;;;;;;;11.23;5.00;;;12.20;83.90;;;;;;5039437;28;20029;-72
2021/09/21 05:01:24;;;;;;;13.38;5.07;;;12.20;84.70;;;;;;5039525;28;20044;-72
2021/09/21 05:03:50;;;;;;;8.15;5.15;;;12.20;85.30;;;;;;5037196;28;20022;-72
2021/09/21 05:06:17;;;;;;;9.07;4.40;;;12.20;85.00;;;;;;5038792;28;20029;-73
2021/09/21 05:08:43;;;;;;;14.00;6.10;;;12.20;84.30;;;;;;5038966;28;20036;-72
2021/09/21 05:11:10;;;;;;;10.95;6.65;;;12.20;86.60;;;;;;5039532;28;20499;-72
2021/09/21 05:13:36;;;;;;;13.20;6.60;;;12.20;86.70;;;;;;5041929;28;20100;-73
2021/09/21 05:16:02;;;;;;;10.70;5.93;;;12.20;87.70;;;;;;5039009;28;20029;-72
2021/09/21 05:18:28;;;;;;;10.60;4.90;;;12.20;87.20;;;;;;5039205;28;20554;-76
2021/09/21 05:20:54;;;;;;;9.60;5.35;;;12.20;85.90;;;;;;5038119;28;20026;-74
2021/09/21 05:23:20;;;;;;;11.73;6.35;;;12.20;85.10;;;;;;5038375;28;20048;-73
2021/09/21 05:25:46;;;;;;;12.32;5.07;;;12.20;86.40;;;;;;5044029;28;20613;-72
2021/09/21 05:28:12;;;;;;;9.05;4.68;;;12.20;84.80;;;;;;5038716;28;20141;-75
2021/09/21 05:30:38;;;;;;;8.77;4.50;;;12.10;84.00;;;;;;5039193;28;20041;-72
2021/09/21 05:33:03;;;;;;;8.93;4.10;;;12.10;83.40;;;;;;5038446;28;20418;-72
2021/09/21 05:35:29;;;;;;;5.93;3.70;;;12.10;82.60;;;;;;5038939;28;20057;-72
2021/09/21 05:37:55;;;;;;;9.73;5.28;;;12.00;82.00;;;;;;5038915;28;20041;-72
2021/09/21 05:40:22;;;;;;;16.77;7.88;;;12.00;83.10;;;;;;5039025;28;20025;-72
2021/09/21 05:42:47;;;;;;;12.70;6.53;;;12.10;85.20;;;;;;5031743;28;20033;-72
2021/09/21 05:45:14;;;;;;;15.95;6.78;;;12.10;86.00;;;;;;5038847;28;20026;-71
2021/09/21 05:47:40;;;;;;;8.48;5.57;;;12.10;86.20;;;;;;5037233;28;20032;-72
2021/09/21 05:50:07;;;;;;;9.38;5.28;;;12.10;85.10;;;;;;5038618;28;20029;-72
2021/09/21 05:52:33;;;;;;;8.23;5.70;;;12.10;84.30;;;;;;5038503;28;20108;-72
2021/09/21 05:54:59;;;;;;;11.35;5.50;;;12.10;86.80;;;;;;5038758;28;20052;-72
2021/09/21 05:57:24;;;;;;;9.95;5.93;;;12.10;85.60;;;;;;5036939;28;20480;-72
2021/09/21 05:59:50;;;;;;;12.45;6.47;;;12.10;86.70;;;;;;5035769;28;20488;-72
2021/09/21 06:02:23;;;;;;;11.25;5.93;;;12.10;86.30;;;;;;5037242;28;20025;-71
2021/09/21 06:04:49;;;;;;;12.02;6.70;;;12.10;86.70;;;;;;5036975;28;20021;-72
2021/09/21 06:07:15;;;;;;;13.07;6.13;;;12.10;86.60;;;;;;5036217;28;20025;-71
2021/09/21 06:09:41;;;;;;;16.00;7.63;;;12.10;86.50;;;;;;5029210;28;20078;-71
2021/09/21 06:12:07;;;;;;;11.27;5.70;;;12.20;87.20;;;;;;5038080;28;20491;-72
2021/09/21 06:14:32;;;;;;;10.80;5.63;;;12.10;86.50;;;;;;5038524;28;20024;-71
2021/09/21 06:16:58;;;;;;;11.52;6.45;;;12.10;86.40;;;;;;5036868;28;20025;-71
2021/09/21 06:19:24;;;;;;;13.90;7.30;;;12.10;86.50;;;;;;5038263;28;20063;-71
2021/09/21 06:21:51;;;;;;;10.73;6.93;;;12.20;87.40;;;;;;5038396;28;20057;-71
2021/09/21 06:24:16;;;;;;;13.88;7.47;;;12.20;87.90;;;;;;5035676;28;20026;-71
2021/09/21 06:26:42;;;;;;;12.77;6.88;;;12.20;88.50;;;;;;5036870;28;20071;-71
2021/09/21 06:29:08;;;;;;;10.63;6.05;;;12.30;88.00;;;;;;5037787;28;20625;-71
2021/09/21 06:31:34;;;;;;;10.68;6.38;;;12.30;86.90;;;;;;5037895;28;20029;-72
2021/09/21 06:34:00;;;;;;;11.02;5.90;;;12.30;87.60;;;;;;5037862;28;20033;-71
2021/09/21 06:36:26;;;;;;;13.25;5.63;;;12.30;86.40;;;;;;5037834;28;20586;-71
2021/09/21 06:38:52;;;;;;;12.88;6.90;;;12.30;85.70;;;;;;5038024;28;20021;-71
2021/09/21 06:41:17;;;;;;;8.88;6.00;;;12.30;86.90;;;;;;5037927;28;20029;-71
2021/09/21 06:43:43;;;;;;;10.05;6.00;;;12.40;87.30;;;;;;5034340;28;20112;-71
2021/09/21 06:46:09;;;;;;;10.73;6.60;;;12.40;86.50;;;;;;5037010;28;20031;-72
2021/09/21 06:48:39;;;;;;;8.65;5.93;;;12.50;87.10;;;;;;5037754;28;20499;-72
2021/09/21 06:51:06;;;;;;;9.85;5.53;;;12.50;87.00;;;;;;5037657;28;20033;-71
2021/09/21 06:53:32;;;;;;;9.80;5.57;;;12.50;85.90;;;;;;5035974;28;20084;-71
2021/09/21 06:55:57;;;;;;;9.63;5.50;;;12.60;85.50;;;;;;5037580;28;20029;-71
2021/09/21 06:58:23;;;;;;;8.57;5.10;;;12.50;85.40;;;;;;5037740;28;20029;-71
2021/09/21 07:00:49;;;;;;;8.82;5.47;;;12.60;84.30;;;;;;5037213;28;20396;-72
2021/09/21 07:03:15;;;;;;;8.77;5.15;;;12.70;84.70;;;;;;5035327;28;20060;-71
2021/09/21 07:05:41;;;;;;;10.98;6.20;;;12.70;83.90;;;;;;5037315;28;20386;-71
2021/09/21 07:08:07;;;;;;;11.75;5.70;;;12.80;84.80;;;;;;5037078;28;20055;-72
2021/09/21 07:10:33;;;;;;;9.13;5.25;;;12.80;84.30;;;;;;5037418;28;20029;-72
2021/09/21 07:12:59;;;;;;;9.55;5.65;;;12.80;83.60;;;;;;5036236;28;20026;-71
2021/09/21 07:15:25;;;;;;;8.65;5.60;;;12.90;84.00;;;;;;5037405;28;20018;-71
2021/09/21 07:17:53;;;;;;;8.32;5.57;;;13.00;84.60;;;;;;5036785;28;20445;-71
2021/09/21 07:20:23;;;;;;;12.77;8.75;;;13.00;84.20;;;;;;5037075;28;20021;-71
2021/09/21 07:22:49;;;;;;;24.30;16.45;;;13.10;84.80;;;;;;5034895;28;20030;-71
2021/09/21 07:25:17;;;;;;;14.38;9.23;;;13.20;85.70;;;;;;5033695;28;20029;-71
2021/09/21 07:27:43;;;;;;;12.93;9.32;;;13.30;86.30;;;;;;5029160;28;20116;-72
2021/09/21 07:30:09;;;;;;;24.23;17.33;;;13.40;85.80;;;;;;5036810;28;20041;-71
2021/09/21 07:32:35;;;;;;;31.20;26.55;;;13.50;86.00;;;;;;5037039;28;20128;-71
2021/09/21 07:35:02;;;;;;;37.13;31.73;;;13.70;86.40;;;;;;5036889;28;20041;-71
2021/09/21 07:37:28;;;;;;;42.25;37.75;;;13.80;86.30;;;;;;5037236;28;20022;-71
2021/09/21 07:39:55;;;;;;;26.85;23.58;;;13.90;86.60;;;;;;5035714;28;20105;-72
2021/09/21 07:42:21;;;;;;;15.05;12.05;;;14.10;86.20;;;;;;5035993;28;20083;-72
2021/09/21 07:44:47;;;;;;;11.07;9.55;;;14.10;85.80;;;;;;5037113;28;20025;-71
2021/09/21 07:47:14;;;;;;;11.15;7.68;;;14.20;86.00;;;;;;5035597;28;20029;-72
2021/09/21 07:49:40;;;;;;;10.27;6.82;;;14.30;85.80;;;;;;5037059;28;20031;-72
2021/09/21 07:52:06;;;;;;;8.80;6.20;;;14.30;85.90;;;;;;5037068;28;20025;-71
2021/09/21 07:54:31;;;;;;;10.93;7.25;;;14.40;85.80;;;;;;5036905;28;20030;-71
2021/09/21 07:56:57;;;;;;;8.07;5.72;;;14.40;85.50;;;;;;5037073;28;20361;-72
2021/09/21 07:59:23;;;;;;;8.82;5.68;;;14.40;85.50;;;;;;5036956;28;20068;-71
2021/09/21 08:01:49;;;;;;;11.00;6.88;;;14.50;85.10;;;;;;5036862;28;20017;-71
2021/09/21 08:04:15;;;;;;;9.63;6.22;;;14.50;85.20;;;;;;5034066;28;20045;-72
2021/09/21 08:06:41;;;;;;;8.98;5.75;;;14.60;85.40;;;;;;5033193;28;20945;-72
2021/09/21 08:09:07;;;;;;;7.40;5.32;;;14.60;84.90;;;;;;5031233;28;20063;-71
2021/09/21 08:11:33;;;;;;;9.23;5.00;;;14.70;84.50;;;;;;5033271;28;20033;-71
2021/09/21 08:14:03;;;;;;;6.82;5.00;;;14.80;84.30;;;;;;5035877;28;20409;-72
2021/09/21 08:16:30;;;;;;;7.95;5.75;;;14.80;84.00;;;;;;5036823;28;20026;-71
2021/09/21 08:18:56;;;;;;;9.50;6.93;;;14.90;84.50;;;;;;5036809;28;20053;-71
2021/09/21 08:21:25;;;;;;;10.35;7.45;;;15.00;84.80;;;;;;5036933;28;20037;-71
2021/09/21 08:23:51;;;;;;;9.65;7.38;;;15.00;85.20;;;;;;5023735;28;20071;-71
2021/09/21 08:26:17;;;;;;;8.55;6.15;;;15.10;85.10;;;;;;5025535;28;20038;-71
2021/09/21 08:28:43;;;;;;;10.57;6.78;;;15.30;85.10;;;;;;5034795;28;20420;-71
2021/09/21 08:31:09;;;;;;;9.27;6.72;;;15.40;85.20;;;;;;5036590;28;20030;-71
2021/09/21 08:33:34;;;;;;;10.27;6.82;;;15.80;86.20;;;;;;5034875;28;20075;-70
2021/09/21 08:36:00;;;;;;;14.23;9.77;;;16.50;85.50;;;;;;5036222;28;20045;-71
2021/09/21 08:38:26;;;;;;;13.00;9.85;;;17.00;84.30;;;;;;5035899;28;20021;-73
2021/09/21 08:40:52;;;;;;;12.20;7.70;;;17.40;83.70;;;;;;5037885;28;20109;-71
2021/09/21 08:43:18;;;;;;;11.57;7.40;;;17.70;82.80;;;;;;5039177;28;20063;-72
2021/09/21 08:45:44;;;;;;;10.40;6.95;;;17.90;82.00;;;;;;5038716;28;20030;-72
2021/09/21 08:48:10;;;;;;;9.75;7.03;;;17.90;81.90;;;;;;5036343;28;20083;-71
2021/09/21 08:50:35;;;;;;;11.23;7.03;;;18.00;82.30;;;;;;5023849;28;20082;-71
2021/09/21 08:53:02;;;;;;;10.82;7.05;;;18.30;82.40;;;;;;5037511;28;20044;-71
2021/09/21 08:55:27;;;;;;;11.20;7.25;;;18.60;82.20;;;;;;5039646;28;20037;-71
2021/09/21 08:57:54;;;;;;;14.02;8.88;;;18.80;82.20;;;;;;5035136;28;20029;-72
2021/09/21 09:00:31;;;;;;;12.95;8.88;;;19.30;82.20;;;;;;5039888;28;20029;-72
2021/09/21 09:03:11;;;;;;;14.90;10.40;;;19.70;81.70;;;;;;5028387;28;20500;-71
2021/09/21 09:05:45;;;;;;;15.07;11.50;;;20.30;81.50;;;;;;5039089;28;20035;-71
2021/09/21 09:08:12;;;;;;;17.35;12.35;;;21.00;81.10;;;;;;5039680;28;20067;-71
2021/09/21 09:10:38;;;;;;;17.05;11.82;;;21.80;80.50;;;;;;5039456;28;20029;-71
2021/09/21 09:13:15;;;;;;;15.98;12.27;;;22.60;77.90;;;;;;5038191;28;20028;-72
2021/09/21 09:15:40;;;;;;;17.00;11.00;;;23.10;76.50;;;;;;5038737;28;20022;-71
2021/09/21 09:18:06;;;;;;;13.27;10.27;;;23.40;75.20;;;;;;5032521;28;20025;-72
2021/09/21 09:20:38;;;;;;;14.20;10.10;;;23.80;74.10;;;;;;5038005;28;21175;-72
2021/09/21 09:23:09;;;;;;;19.23;9.98;;;24.20;73.50;;;;;;5039461;28;20075;-72
2021/09/21 09:25:49;;;;;;;13.90;10.05;;;24.60;73.00;;;;;;5038410;28;20041;-72
2021/09/21 09:28:21;;;;;;;11.90;8.82;;;25.20;70.70;;;;;;5039266;28;20018;-72
2021/09/21 09:30:48;;;;;;;14.50;9.10;;;25.60;70.70;;;;;;5039146;28;20021;-71
2021/09/21 09:33:16;;;;;;;12.20;8.65;;;25.80;69.40;;;;;;5031985;28;20085;-72
2021/09/21 09:35:43;;;;;;;11.88;8.30;;;26.00;67.80;;;;;;5035110;28;20046;-72
2021/09/21 09:38:13;;;;;;;12.48;8.27;;;26.10;67.80;;;;;;5035056;28;20014;-72
2021/09/21 09:40:41;;;;;;;12.52;7.28;;;26.40;68.00;;;;;;5038150;28;20063;-72
2021/09/21 09:43:08;;;;;;;10.57;7.10;;;26.90;67.20;;;;;;5036038;28;20025;-72
2021/09/21 09:45:38;;;;;;;11.68;7.82;;;27.20;65.10;;;;;;5038728;28;20030;-72
2021/09/21 09:48:06;;;;;;;9.63;7.55;;;27.70;65.50;;;;;;5038024;28;20025;-72
2021/09/21 09:50:34;;;;;;;14.02;8.30;;;27.60;62.90;;;;;;5026982;28;20022;-72
2021/09/21 09:53:12;;;;;;;12.95;7.13;;;27.30;61.80;;;;;;5027300;28;20017;-73
2021/09/21 09:55:48;;;;;;;12.30;7.25;;;27.10;63.00;;;;;;5037581;28;20101;-73
2021/09/21 09:58:16;;;;;;;8.70;6.05;;;27.40;63.30;;;;;;5035718;28;20032;-72
2021/09/21 10:00:42;;;;;;;9.63;6.25;;;27.90;60.40;;;;;;5038253;28;20021;-72
2021/09/21 10:03:08;;;;;;;9.27;5.85;;;28.50;58.60;;;;;;5038903;28;20108;-73
2021/09/21 10:05:39;;;;;;;8.02;5.55;;;28.70;56.90;;;;;;5038279;28;20037;-73
2021/09/21 10:08:07;;;;;;;10.73;5.50;;;28.50;57.50;;;;;;5032008;28;20095;-73
2021/09/21 10:10:35;;;;;;;9.88;5.93;;;28.30;59.40;;;;;;5038296;28;20104;-73
2021/09/21 10:13:03;;;;;;;9.55;6.70;;;28.30;56.80;;;;;;5037225;28;20091;-73
2021/09/21 10:15:31;;;;;;;9.48;6.28;;;28.40;55.50;;;;;;5037670;28;20032;-73
2021/09/21 10:17:58;;;;;;;6.97;5.30;;;28.60;55.90;;;;;;5038591;28;20476;-73
2021/09/21 10:20:37;;;;;;;9.07;5.53;;;28.90;54.90;;;;;;5037883;28;20080;-73
2021/09/21 10:23:07;;;;;;;7.47;5.60;;;29.30;56.50;;;;;;5037807;28;20071;-72
2021/09/21 10:25:35;;;;;;;8.27;5.53;;;29.60;56.20;;;;;;5021029;28;20152;-73
2021/09/21 10:28:01;;;;;;;7.20;4.82;;;29.90;54.80;;;;;;5033223;28;20056;-73
2021/09/21 10:30:29;;;;;;;8.15;4.90;;;30.20;54.00;;;;;;5038143;28;20037;-73
2021/09/21 10:32:57;;;;;;;7.00;4.72;;;30.40;53.00;;;;;;5036509;28;20048;-74
2021/09/21 10:35:29;;;;;;;6.50;4.72;;;30.40;53.50;;;;;;5037365;28;20124;-73
2021/09/21 10:38:00;;;;;;;;;;;30.50;53.00;;;;;;5038116;28;20112;-73
2021/09/21 10:40:38;;;;;;;7.75;5.28;;;30.70;52.60;;;;;;5037860;28;19936;-73
2021/09/21 10:43:19;;;;;;;7.38;4.35;;;30.90;52.60;;;;;;5036840;28;20032;-73
2021/09/21 10:45:45;;;;;;;7.07;4.82;;;31.10;52.80;;;;;;5037714;28;20034;-73
2021/09/21 10:48:11;;;;;;;9.32;5.07;;;31.30;52.10;;;;;;5037335;28;20030;-72
2021/09/21 10:50:39;;;;;;;7.75;4.20;;;31.50;52.00;;;;;;5035331;28;20028;-74
2021/09/21 10:53:07;;;;;;;7.43;3.65;;;31.70;51.40;;;;;;5035485;28;20029;-73
2021/09/21 10:55:38;;;;;;;7.60;4.20;;;31.90;52.50;;;;;;5037557;28;20377;-72
2021/09/21 10:58:06;;;;;;;8.02;5.07;;;32.00;48.80;;;;;;5025121;28;20160;-73
2021/09/21 11:00:34;;;;;;;7.25;4.00;;;32.20;47.40;;;;;;5037346;28;20037;-73
2021/09/21 11:03:01;;;;;;;7.70;4.22;;;32.10;48.20;;;;;;5037105;28;20085;-73
2021/09/21 11:05:27;;;;;;;9.80;4.82;;;32.20;48.20;;;;;;5037666;28;20060;-73
2021/09/21 11:07:54;;;;;;;9.52;4.85;;;32.20;48.10;;;;;;5034061;28;20021;-73
2021/09/21 11:10:21;;;;;;;8.63;4.57;;;32.30;48.00;;;;;;5032629;28;20045;-73
2021/09/21 11:12:49;;;;;;;6.13;4.35;;;32.40;47.70;;;;;;5037662;28;20022;-73
2021/09/21 11:15:16;;;;;;;9.40;5.15;;;32.50;47.30;;;;;;5037666;28;20033;-72
2021/09/21 11:17:42;;;;;;;7.05;4.93;;;32.50;46.10;;;;;;5037294;28;20024;-73
2021/09/21 11:20:08;;;;;;;7.43;5.03;;;32.50;45.20;;;;;;5037435;28;20040;-72
2021/09/21 11:22:36;;;;;;;7.07;4.50;;;32.50;46.70;;;;;;5037357;28;20029;-73
2021/09/21 11:25:11;;;;;;;7.35;5.00;;;32.50;47.40;;;;;;5034670;28;20087;-72
2021/09/21 11:27:40;;;;;;;7.22;4.70;;;32.60;46.20;;;;;;5026579;28;20056;-72
2021/09/21 11:30:13;;;;;;;6.85;4.57;;;32.60;46.40;;;;;;5037284;28;20083;-73
2021/09/21 11:32:40;;;;;;;8.13;5.45;;;32.60;44.90;;;;;;5037022;28;20018;-73
2021/09/21 11:35:09;;;;;;;7.10;4.95;;;32.50;45.10;;;;;;5036949;28;20045;-73
2021/09/21 11:37:35;;;;;;;9.18;4.68;;;32.50;45.30;;;;;;5037442;28;20499;-73
2021/09/21 11:40:03;;;;;;;5.82;4.10;;;32.60;46.60;;;;;;5036988;28;20034;-73
2021/09/21 11:42:32;;;;;;;7.32;4.57;;;32.50;45.70;;;;;;5036021;28;20017;-73
2021/09/21 11:45:11;;;;;;;6.03;3.92;;;32.30;45.20;;;;;;5035730;28;20492;-73
2021/09/21 11:47:43;;;;;;;30.88;9.75;;;32.30;46.50;;;;;;5036920;28;20029;-73
2021/09/21 11:50:12;;;;;;;24.67;8.20;;;32.30;46.00;;;;;;5037206;28;20079;-73
2021/09/21 11:52:40;;;;;;;7.82;5.10;;;32.30;45.20;;;;;;5035654;28;20484;-72
2021/09/21 11:55:14;;;;;;;7.07;4.40;;;32.20;42.90;;;;;;5037200;28;20025;-73
2021/09/21 11:57:41;;;;;;;8.77;4.93;;;32.30;45.10;;;;;;5035604;28;20026;-72
2021/09/21 12:00:38;;;;;;;11.27;5.63;;;32.30;44.90;;;;;;5037063;28;20022;-73
2021/09/21 12:03:13;;;;;;;7.50;4.10;;;32.30;44.90;;;;;;5024927;28;20033;-72
2021/09/21 12:05:42;;;;;;;7.40;3.90;;;32.30;43.90;;;;;;5037096;28;20064;-73
2021/09/21 12:08:12;;;;;;;6.95;4.45;;;32.10;44.90;;;;;;5036820;28;20109;-73
2021/09/21 12:10:39;;;;;;;6.22;4.22;;;31.90;44.40;;;;;;5036743;28;20437;-73
2021/09/21 12:13:20;;;;;;;7.05;3.88;;;31.90;44.60;;;;;;5036952;28;20476;-72
2021/09/21 12:15:55;;;;;;;6.53;3.40;;;31.80;43.40;;;;;;5039420;28;20029;-73
2021/09/21 12:18:23;;;;;;;6.72;3.83;;;31.80;44.00;;;;;;5040626;28;20025;-72
2021/09/21 12:21:10;;;;;;;6.60;3.90;;;31.70;43.50;;;;;;5040879;28;20029;-73
2021/09/21 12:23:38;;;;;;;7.25;3.80;;;31.70;44.40;;;;;;5040642;28;20044;-73
2021/09/21 12:26:05;;;;;;;5.75;3.75;;;31.80;45.20;;;;;;5030928;28;20095;-72
2021/09/21 12:28:37;;;;;;;5.55;3.40;;;31.80;43.90;;;;;;5037042;28;20029;-73
2021/09/21 12:31:13;;;;;;;8.27;4.68;;;31.80;43.90;;;;;;5039447;28;20013;-73
2021/09/21 12:33:40;;;;;;;5.50;3.78;;;31.50;43.50;;;;;;5040310;28;20096;-72
2021/09/21 12:36:18;;;;;;;6.18;4.25;;;31.10;43.40;;;;;;5040279;28;20101;-72
2021/09/21 12:38:54;;;;;;;5.13;3.28;;;30.80;44.50;;;;;;5028209;28;20496;-72
2021/09/21 12:41:20;;;;;;;6.35;3.67;;;30.80;45.30;;;;;;5040233;28;20061;-73
2021/09/21 12:43:46;;;;;;;6.95;3.03;;;30.80;44.30;;;;;;5039156;28;20028;-72
2021/09/21 12:46:12;;;;;;;5.28;3.28;;;30.70;42.60;;;;;;5039854;28;20092;-72
2021/09/21 12:48:41;;;;;;;5.13;3.45;;;30.60;44.20;;;;;;5040160;28;20068;-72
2021/09/21 12:51:08;;;;;;;6.78;3.30;;;30.50;44.60;;;;;;5039929;28;20456;-72
2021/09/21 12:53:35;;;;;;;4.88;3.17;;;30.30;44.10;;;;;;5039890;28;20018;-73